createdAt,value
2022-12-01T00:01:38.833Z,83.81
2022-12-01T00:04:07.494Z,83.25
2022-12-01T00:06:36.187Z,83.94
2022-12-01T00:09:23.994Z,83.38
2022-12-01T00:11:52.653Z,83.51
2022-12-01T00:14:21.270Z,83.74
2022-12-01T00:16:49.983Z,83.28
2022-12-01T00:19:18.829Z,84.04
2022-12-01T00:21:47.611Z,83.25
2022-12-01T00:24:17.542Z,83.07
2022-12-01T00:26:46.238Z,83.22
2022-12-01T00:29:14.878Z,84.05
2022-12-01T00:31:43.530Z,81.75
2022-12-01T00:34:22.970Z,80.89
2022-12-01T00:36:51.621Z,81.41
2022-12-01T00:39:21.715Z,81.63
2022-12-01T00:41:50.322Z,81.78
2022-12-01T00:44:18.906Z,81.92
2022-12-01T00:46:47.528Z,81.76
2022-12-01T00:49:16.655Z,81.99
2022-12-01T00:51:45.342Z,82.96
2022-12-01T00:54:13.962Z,82.47
2022-12-01T00:56:43.968Z,82.41
2022-12-01T00:59:12.838Z,83.07
2022-12-01T01:01:41.529Z,82.66
2022-12-01T01:04:10.139Z,82.59
2022-12-01T01:06:38.763Z,81.52
2022-12-01T01:09:07.343Z,80.82
2022-12-01T01:11:35.993Z,80.02
2022-12-01T01:14:06.393Z,78.74
2022-12-01T01:16:35.406Z,80.14
2022-12-01T01:19:04.030Z,81.39
2022-12-01T01:21:32.682Z,81.63
2022-12-01T01:24:01.352Z,80.91
2022-12-01T01:26:31.548Z,81.25
2022-12-01T01:29:01.883Z,81.61
2022-12-01T01:31:32.490Z,82.02
2022-12-01T01:34:01.076Z,82.12
2022-12-01T01:36:29.721Z,81.77
2022-12-01T01:38:58.350Z,81.75
2022-12-01T01:41:27.010Z,82.08
2022-12-01T01:43:57.138Z,81.38
2022-12-01T01:46:26.894Z,81.38
2022-12-01T01:49:00.133Z,81.56
2022-12-01T01:51:31.418Z,81.91
2022-12-01T01:54:03.434Z,81.28
2022-12-01T01:56:32.131Z,81.00
2022-12-01T01:59:00.947Z,81.17
2022-12-01T02:01:29.916Z,81.48
2022-12-01T02:04:00.009Z,81.26
2022-12-01T02:06:28.682Z,81.10
2022-12-01T02:08:57.271Z,81.01
2022-12-01T02:11:48.227Z,80.64
2022-12-01T02:14:42.694Z,81.44
2022-12-01T02:17:20.769Z,81.35
2022-12-01T02:20:12.410Z,81.58
2022-12-01T02:22:53.569Z,81.30
2022-12-01T02:25:27.730Z,81.33
2022-12-01T02:28:17.727Z,81.75
2022-12-01T02:30:49.963Z,81.40
2022-12-01T02:33:21.603Z,80.98
2022-12-01T02:35:53.763Z,81.62
2022-12-01T02:38:25.952Z,81.55
2022-12-01T02:40:57.859Z,81.45
2022-12-01T02:43:31.683Z,80.64
2022-12-01T02:46:05.803Z,80.85
2022-12-01T02:48:35.607Z,81.15
2022-12-01T02:51:08.039Z,80.79
2022-12-01T02:53:36.854Z,81.64
2022-12-01T02:56:08.379Z,80.94
2022-12-01T02:58:37.094Z,80.87
2022-12-01T03:01:38.144Z,81.30
2022-12-01T03:04:33.659Z,79.29
2022-12-01T03:07:09.363Z,80.20
2022-12-01T03:09:47.975Z,80.31
2022-12-01T03:12:23.429Z,81.03
2022-12-01T03:14:56.708Z,81.26
2022-12-01T03:17:29.035Z,80.75
2022-12-01T03:20:01.838Z,81.14
2022-12-01T03:22:34.594Z,81.15
2022-12-01T03:25:04.416Z,81.03
2022-12-01T03:27:36.491Z,80.29
2022-12-01T03:30:10.235Z,80.38
2022-12-01T03:32:46.634Z,80.58
2022-12-01T03:35:17.755Z,79.61
2022-12-01T03:37:51.060Z,80.64
2022-12-01T03:40:24.788Z,80.72
2022-12-01T03:42:56.695Z,80.70
2022-12-01T03:45:28.691Z,79.65
2022-12-01T03:47:58.687Z,79.56
2022-12-01T03:50:31.087Z,80.34
2022-12-01T03:53:06.453Z,79.94
2022-12-01T03:55:38.527Z,80.03
2022-12-01T03:58:11.634Z,80.23
2022-12-01T04:00:40.545Z,80.15
2022-12-01T04:03:18.424Z,80.03
2022-12-01T04:05:47.286Z,79.85
2022-12-01T04:08:15.939Z,80.35
2022-12-01T04:10:44.747Z,80.97
2022-12-01T04:13:22.826Z,80.62
2022-12-01T04:15:51.924Z,81.11
2022-12-01T04:18:22.724Z,80.92
2022-12-01T04:20:51.588Z,81.56
2022-12-01T04:23:34.118Z,81.41
2022-12-01T04:26:03.390Z,80.32
2022-12-01T04:28:31.969Z,80.73
2022-12-01T04:31:00.647Z,80.60
2022-12-01T04:33:31.564Z,81.00
2022-12-01T04:36:00.725Z,80.59
2022-12-01T04:38:31.052Z,81.65
2022-12-01T04:40:59.861Z,80.56
2022-12-01T04:43:28.435Z,79.95
2022-12-01T04:45:56.991Z,80.33
2022-12-01T04:48:25.593Z,79.99
2022-12-01T04:50:55.551Z,79.89
2022-12-01T04:53:24.212Z,79.52
2022-12-01T04:55:52.800Z,80.16
2022-12-01T04:58:21.431Z,79.72
2022-12-01T05:00:50.115Z,80.30
2022-12-01T05:03:18.727Z,79.95
2022-12-01T05:05:47.358Z,80.19
2022-12-01T05:08:17.277Z,80.21
2022-12-01T05:10:45.943Z,79.91
2022-12-01T05:13:14.579Z,80.37
2022-12-01T05:15:43.130Z,80.71
2022-12-01T05:18:11.790Z,81.11
2022-12-01T05:20:57.390Z,79.46
2022-12-01T05:25:57.286Z,79.11
2022-12-01T05:28:27.351Z,78.87
2022-12-01T05:30:56.416Z,80.01
2022-12-01T05:33:26.232Z,79.58
2022-12-01T05:35:55.395Z,79.87
2022-12-01T05:38:24.028Z,79.68
2022-12-01T05:40:55.325Z,79.98
2022-12-01T05:43:29.129Z,80.29
2022-12-01T05:45:58.895Z,80.90
2022-12-01T05:48:27.780Z,80.61
2022-12-01T05:50:56.442Z,79.59
2022-12-01T05:53:25.074Z,80.16
2022-12-01T05:55:55.455Z,81.01
2022-12-01T05:58:24.048Z,80.30
2022-12-01T06:00:52.652Z,81.01
2022-12-01T06:03:21.243Z,80.72
2022-12-01T06:05:49.980Z,80.39
2022-12-01T06:08:18.633Z,80.78
2022-12-01T06:10:47.246Z,81.63
2022-12-01T06:13:17.232Z,81.38
2022-12-01T06:15:45.828Z,81.95
2022-12-01T06:18:14.383Z,82.19
2022-12-01T06:20:42.942Z,82.66
2022-12-01T06:23:11.586Z,82.62
2022-12-01T06:25:40.227Z,82.27
2022-12-01T06:28:08.848Z,82.35
2022-12-01T06:30:38.824Z,82.68
2022-12-01T06:33:07.424Z,82.34
2022-12-01T06:35:36.085Z,82.33
2022-12-01T06:38:05.063Z,82.11
2022-12-01T06:40:33.727Z,82.24
2022-12-01T06:43:03.153Z,81.74
2022-12-01T06:45:32.246Z,81.89
2022-12-01T06:48:03.004Z,82.55
2022-12-01T06:50:31.632Z,81.83
2022-12-01T06:53:00.280Z,82.18
2022-12-01T06:55:28.927Z,82.69
2022-12-01T06:58:00.864Z,82.92
2022-12-01T07:00:29.900Z,83.05
2022-12-01T07:02:58.619Z,83.32
2022-12-01T07:05:28.627Z,82.96
2022-12-01T07:07:59.643Z,83.26
2022-12-01T07:10:28.821Z,82.45
2022-12-01T07:12:58.047Z,82.33
2022-12-01T07:15:28.680Z,82.36
2022-12-01T07:17:57.328Z,83.38
2022-12-01T07:20:25.974Z,83.32
2022-12-01T07:22:56.718Z,83.13
2022-12-01T07:25:25.317Z,82.04
2022-12-01T07:27:53.860Z,82.88
2022-12-01T07:30:28.099Z,84.15
2022-12-01T07:32:57.170Z,83.90
2022-12-01T07:35:25.782Z,82.93
2022-12-01T07:37:57.027Z,83.88
2022-12-01T07:40:25.685Z,83.41
2022-12-01T07:42:54.290Z,82.25
2022-12-01T07:45:22.954Z,83.09
2022-12-01T07:47:53.914Z,82.25
2022-12-01T07:50:22.557Z,82.57
2022-12-01T07:52:51.194Z,82.84
2022-12-01T07:55:21.125Z,82.67
2022-12-01T07:57:49.724Z,83.05
2022-12-01T08:00:18.923Z,83.01
2022-12-01T08:02:49.448Z,82.61
2022-12-01T08:05:18.144Z,82.52
2022-12-01T08:07:46.806Z,83.57
2022-12-01T08:10:15.682Z,82.93
2022-12-01T08:12:47.719Z,83.04
2022-12-01T08:15:16.571Z,83.34
2022-12-01T08:17:45.256Z,83.37
2022-12-01T08:20:18.471Z,83.38
2022-12-01T08:22:51.028Z,83.04
2022-12-01T08:25:19.626Z,83.61
2022-12-01T08:27:49.653Z,83.25
2022-12-01T08:30:18.353Z,83.67
2022-12-01T08:32:46.937Z,83.71
2022-12-01T08:35:15.654Z,83.23
2022-12-01T08:37:44.275Z,84.21
2022-12-01T08:40:13.831Z,84.89
2022-12-01T08:42:42.467Z,83.85
2022-12-01T08:45:13.500Z,84.35
2022-12-01T08:47:43.083Z,84.43
2022-12-01T08:50:12.231Z,85.11
2022-12-01T08:52:40.872Z,84.67
2022-12-01T08:55:10.452Z,84.87
2022-12-01T08:57:39.043Z,84.56
2022-12-01T09:00:08.962Z,84.24
2022-12-01T09:02:38.958Z,84.21
2022-12-01T09:05:08.589Z,84.71
2022-12-01T09:07:37.291Z,84.92
2022-12-01T09:10:07.249Z,84.99
2022-12-01T09:12:35.996Z,84.30
2022-12-01T09:15:05.160Z,84.33
2022-12-01T09:17:33.802Z,83.19
2022-12-01T09:20:03.765Z,83.61
2022-12-01T09:22:34.124Z,83.40
2022-12-01T09:25:02.823Z,83.14
2022-12-01T09:27:31.474Z,83.02
2022-12-01T09:30:00.146Z,82.31
2022-12-01T09:32:28.780Z,82.15
2022-12-01T09:34:57.373Z,82.56
2022-12-01T09:37:27.377Z,82.37
2022-12-01T09:39:56.202Z,82.51
2022-12-01T09:42:30.863Z,82.80
2022-12-01T09:45:04.926Z,83.02
2022-12-01T09:47:36.078Z,82.87
2022-12-01T09:50:07.646Z,83.02
2022-12-01T09:52:42.160Z,82.67
2022-12-01T09:55:12.928Z,82.17
2022-12-01T09:57:42.170Z,82.54
2022-12-01T10:00:15.247Z,82.80
2022-12-01T10:02:48.545Z,83.13
2022-12-01T10:05:20.092Z,83.11
2022-12-01T10:07:53.717Z,83.18
2022-12-01T10:10:27.534Z,84.09
2022-12-01T10:12:56.240Z,83.15
2022-12-01T10:15:33.389Z,83.60
2022-12-01T10:18:10.656Z,83.76
2022-12-01T10:20:43.536Z,84.38
2022-12-01T10:23:24.588Z,84.49
2022-12-01T10:25:57.802Z,83.98
2022-12-01T10:28:46.207Z,84.02
2022-12-01T10:31:20.102Z,84.07
2022-12-01T10:33:59.779Z,83.37
2022-12-01T10:36:29.617Z,83.49
2022-12-01T10:38:59.646Z,83.74
2022-12-01T10:41:30.191Z,83.37
2022-12-01T10:44:00.915Z,83.28
2022-12-01T10:46:33.741Z,83.75
2022-12-01T10:49:11.466Z,83.63
2022-12-01T10:51:52.452Z,84.10
2022-12-01T10:54:23.260Z,83.96
2022-12-01T10:56:57.014Z,83.40
2022-12-01T10:59:32.541Z,83.26
2022-12-01T11:02:02.771Z,82.85
2022-12-01T11:04:45.250Z,82.54
2022-12-01T11:07:20.028Z,82.96
2022-12-01T11:10:13.749Z,82.79
2022-12-01T11:12:42.573Z,82.92
2022-12-01T11:15:20.358Z,83.07
2022-12-01T11:17:48.993Z,83.29
2022-12-01T11:20:30.540Z,83.80
2022-12-01T11:23:24.303Z,83.46
2022-12-01T11:26:07.686Z,83.80
2022-12-01T11:28:37.137Z,83.04
2022-12-01T11:31:07.772Z,83.25
2022-12-01T11:33:44.168Z,84.08
2022-12-01T11:36:24.219Z,84.11
2022-12-01T11:38:56.851Z,83.97
2022-12-01T11:41:32.034Z,84.00
2022-12-01T11:44:04.110Z,84.33
2022-12-01T11:49:30.948Z,84.46
2022-12-01T11:52:18.326Z,84.41
2022-12-01T11:54:56.628Z,85.07
2022-12-01T11:57:34.238Z,85.25
2022-12-01T12:00:13.062Z,84.38
2022-12-01T12:02:45.527Z,84.66
2022-12-01T12:05:45.395Z,84.72
2022-12-01T12:08:22.189Z,84.49
2022-12-01T12:10:57.060Z,84.37
2022-12-01T12:13:50.081Z,83.96
2022-12-01T12:16:27.511Z,84.69
2022-12-01T12:19:12.089Z,83.90
2022-12-01T12:21:45.866Z,83.52
2022-12-01T12:24:26.971Z,83.06
2022-12-01T12:27:02.645Z,83.11
2022-12-01T12:29:50.045Z,82.94
2022-12-01T12:32:38.530Z,81.97
2022-12-01T12:35:19.022Z,81.87
2022-12-01T12:37:52.525Z,82.94
2022-12-01T12:40:34.106Z,82.91
2022-12-01T12:43:18.873Z,82.79
2022-12-01T12:45:55.391Z,82.57
2022-12-01T12:48:32.730Z,83.39
2022-12-01T12:51:09.324Z,82.78
2022-12-01T12:53:43.238Z,82.55
2022-12-01T12:56:14.367Z,82.36
2022-12-01T12:58:56.801Z,83.26
2022-12-01T13:01:29.754Z,83.88
2022-12-01T13:04:02.009Z,83.39
2022-12-01T13:06:34.052Z,82.96
2022-12-01T13:09:05.379Z,83.06
2022-12-01T13:11:38.000Z,82.79
2022-12-01T13:14:08.986Z,82.00
2022-12-01T13:16:41.659Z,82.83
2022-12-01T13:19:13.632Z,82.84
2022-12-01T13:21:44.315Z,82.21
2022-12-01T13:24:18.514Z,82.64
2022-12-01T13:26:51.695Z,83.07
2022-12-01T13:29:23.013Z,82.69
2022-12-01T13:31:54.503Z,83.28
2022-12-01T13:34:26.873Z,83.21
2022-12-01T13:36:57.129Z,83.37
2022-12-01T13:39:27.776Z,82.93
2022-12-01T13:42:02.356Z,82.07
2022-12-01T13:44:34.951Z,82.75
2022-12-01T13:47:26.295Z,82.09
2022-12-01T13:49:54.961Z,82.34
2022-12-01T13:52:32.248Z,81.77
2022-12-01T13:55:23.720Z,81.42
2022-12-01T13:58:21.931Z,82.24
2022-12-01T14:00:51.355Z,81.84
2022-12-01T14:03:39.605Z,81.74
2022-12-01T14:06:22.731Z,82.18
2022-12-01T14:08:51.662Z,82.03
2022-12-01T14:11:22.959Z,82.31
2022-12-01T14:13:54.044Z,82.51
2022-12-01T14:16:23.193Z,82.45
2022-12-01T14:18:56.447Z,82.68
2022-12-01T14:21:42.488Z,83.40
2022-12-01T14:24:22.637Z,82.93
2022-12-01T14:26:52.056Z,82.59
2022-12-01T14:29:32.066Z,82.44
2022-12-01T14:32:22.247Z,82.25
2022-12-01T14:34:54.553Z,81.49
2022-12-01T14:37:25.423Z,83.11
2022-12-01T14:39:58.624Z,83.50
2022-12-01T14:42:50.634Z,83.42
2022-12-01T14:45:23.622Z,83.47
2022-12-01T14:47:56.971Z,83.99
2022-12-01T14:50:32.915Z,83.72
2022-12-01T14:53:07.457Z,83.41
2022-12-01T14:55:38.639Z,83.27
2022-12-01T14:58:08.741Z,82.80
2022-12-01T15:00:38.897Z,82.59
2022-12-01T15:03:10.381Z,82.56
2022-12-01T15:05:42.039Z,82.86
2022-12-01T15:08:40.926Z,82.73
2022-12-01T15:11:14.495Z,83.67
2022-12-01T15:13:49.390Z,84.31
2022-12-01T15:16:20.997Z,83.86
2022-12-01T15:18:50.331Z,82.84
2022-12-01T15:21:22.595Z,83.24
2022-12-01T15:23:56.540Z,82.55
2022-12-01T15:26:27.179Z,82.88
2022-12-01T15:29:07.252Z,83.23
2022-12-01T15:31:36.231Z,83.26
2022-12-01T15:34:05.065Z,82.86
2022-12-01T15:36:35.059Z,83.22
2022-12-01T15:39:07.078Z,82.43
2022-12-01T15:41:36.839Z,83.39
2022-12-01T15:44:08.239Z,83.49
2022-12-01T15:46:36.795Z,84.06
2022-12-01T15:49:09.226Z,84.30
2022-12-01T15:51:39.290Z,84.11
2022-12-01T15:54:17.222Z,83.99
2022-12-01T15:56:46.313Z,84.66
2022-12-01T15:59:26.547Z,84.17
2022-12-01T16:01:56.782Z,83.73
2022-12-01T16:04:27.107Z,83.75
2022-12-01T16:06:59.745Z,83.90
2022-12-01T16:09:31.243Z,85.49
2022-12-01T16:12:19.321Z,84.46
2022-12-01T16:14:53.693Z,86.80
2022-12-01T16:17:23.180Z,88.09
2022-12-01T16:20:16.326Z,89.17
2022-12-01T16:22:47.424Z,89.13
2022-12-01T16:25:19.013Z,88.98
2022-12-01T16:27:53.077Z,88.48
2022-12-01T16:30:23.904Z,87.95
2022-12-01T16:32:52.856Z,87.26
2022-12-01T16:35:24.629Z,86.40
2022-12-01T16:37:55.227Z,86.65
2022-12-01T16:40:24.263Z,87.46
2022-12-01T16:42:52.932Z,87.70
2022-12-01T16:45:21.601Z,86.88
2022-12-01T16:47:50.467Z,87.92
2022-12-01T16:50:21.204Z,88.28
2022-12-01T16:52:49.862Z,88.84
2022-12-01T16:55:38.777Z,88.66
2022-12-01T16:58:07.533Z,89.27
2022-12-01T17:00:36.660Z,88.72
2022-12-01T17:03:06.062Z,87.87
2022-12-01T17:05:35.271Z,87.78
2022-12-01T17:08:04.102Z,88.36
2022-12-01T17:10:34.275Z,88.04
2022-12-01T17:13:02.914Z,88.75
2022-12-01T17:15:31.719Z,88.79
2022-12-01T17:18:00.338Z,88.73
2022-12-01T17:20:28.967Z,88.87
2022-12-01T17:22:57.584Z,88.62
2022-12-01T17:25:26.206Z,88.31
2022-12-01T17:27:56.166Z,87.78
2022-12-01T17:30:25.128Z,88.19
2022-12-01T17:32:53.839Z,87.64
2022-12-01T17:35:22.469Z,88.24
2022-12-01T17:37:51.152Z,87.71
2022-12-01T17:40:19.819Z,88.13
2022-12-01T17:42:51.022Z,88.40
2022-12-01T17:45:21.217Z,88.10
2022-12-01T17:47:50.109Z,87.26
2022-12-01T17:50:18.847Z,88.24
2022-12-01T17:52:47.512Z,88.11
2022-12-01T17:55:16.559Z,88.18
2022-12-01T17:57:45.191Z,87.99
2022-12-01T18:00:15.290Z,88.53
2022-12-01T18:02:47.279Z,88.81
2022-12-01T18:05:16.044Z,88.38
2022-12-01T18:07:44.761Z,88.46
2022-12-01T18:10:13.408Z,88.65
2022-12-01T18:12:42.051Z,88.63
2022-12-01T18:15:12.278Z,88.76
2022-12-01T18:17:40.987Z,88.51
2022-12-01T18:20:11.962Z,88.69
2022-12-01T18:22:40.533Z,88.68
2022-12-01T18:25:09.604Z,89.23
2022-12-01T18:27:38.256Z,89.27
2022-12-01T18:30:08.439Z,88.93
2022-12-01T18:32:37.063Z,88.62
2022-12-01T18:35:06.612Z,88.71
2022-12-01T18:37:37.437Z,88.79
2022-12-01T18:40:07.603Z,89.55
2022-12-01T18:42:36.240Z,90.79
2022-12-01T18:45:05.226Z,89.98
2022-12-01T18:47:33.813Z,90.54
2022-12-01T18:50:02.517Z,89.60
2022-12-01T18:52:32.260Z,89.69
2022-12-01T18:55:02.247Z,90.39
2022-12-01T18:57:30.963Z,90.46
2022-12-01T18:59:59.712Z,90.12
2022-12-01T19:02:28.433Z,90.38
2022-12-01T19:04:57.085Z,90.43
2022-12-01T19:07:29.702Z,90.52
2022-12-01T19:09:59.034Z,90.59
2022-12-01T19:12:29.414Z,90.69
2022-12-01T19:14:58.222Z,90.96
2022-12-01T19:17:27.099Z,91.02
2022-12-01T19:19:55.825Z,90.59
2022-12-01T19:22:24.877Z,90.20
2022-12-01T19:24:54.183Z,91.25
2022-12-01T19:27:23.239Z,90.61
2022-12-01T19:29:53.876Z,90.61
2022-12-01T19:32:23.176Z,91.04
2022-12-01T19:34:52.058Z,90.31
2022-12-01T19:37:21.021Z,90.29
2022-12-01T19:39:49.641Z,90.76
2022-12-01T19:42:18.269Z,90.41
2022-12-01T19:44:47.146Z,90.57
2022-12-01T19:47:21.853Z,89.72
2022-12-01T19:49:51.049Z,89.97
2022-12-01T19:52:19.693Z,90.30
2022-12-01T19:54:48.695Z,90.36
2022-12-01T19:57:17.605Z,91.06
2022-12-01T19:59:46.217Z,91.34
2022-12-01T20:02:15.000Z,91.33
2022-12-01T20:04:45.056Z,90.32
2022-12-01T20:07:13.750Z,90.17
2022-12-01T20:09:49.578Z,90.59
2022-12-01T20:12:18.822Z,90.16
2022-12-01T20:14:47.648Z,90.11
2022-12-01T20:17:16.461Z,90.54
2022-12-01T20:19:46.557Z,91.05
2022-12-01T20:22:15.166Z,90.90
2022-12-01T20:24:43.847Z,91.10
2022-12-01T20:27:12.575Z,90.68
2022-12-01T20:29:41.200Z,90.64
2022-12-01T20:32:09.938Z,91.05
2022-12-01T20:34:38.624Z,91.08
2022-12-01T20:37:08.670Z,90.94
2022-12-01T20:39:38.627Z,90.78
2022-12-01T20:42:07.574Z,90.40
2022-12-01T20:44:36.724Z,90.67
2022-12-01T20:47:05.500Z,90.22
2022-12-01T20:49:34.341Z,89.99
2022-12-01T20:52:03.033Z,90.53
2022-12-01T20:54:33.014Z,89.93
2022-12-01T20:57:01.712Z,90.36
2022-12-01T20:59:30.386Z,90.44
2022-12-01T21:01:59.150Z,90.79
2022-12-01T21:04:27.818Z,90.61
2022-12-01T21:06:57.050Z,91.30
2022-12-01T21:09:26.072Z,91.76
2022-12-01T21:12:15.707Z,91.41
2022-12-01T21:14:46.777Z,91.84
2022-12-01T21:17:25.360Z,91.81
2022-12-01T21:19:57.265Z,92.03
2022-12-01T21:22:26.324Z,92.27
2022-12-01T21:25:03.473Z,91.87
2022-12-01T21:27:33.600Z,91.68
2022-12-01T21:30:02.555Z,92.11
2022-12-01T21:32:32.787Z,91.46
2022-12-01T21:35:06.719Z,91.42
2022-12-01T21:37:35.450Z,91.79
2022-12-01T21:40:04.389Z,91.22
2022-12-01T21:42:34.357Z,91.38
2022-12-01T21:45:03.049Z,91.90
2022-12-01T21:47:31.752Z,91.70
2022-12-01T21:50:02.220Z,91.69
2022-12-01T21:52:35.073Z,92.14
2022-12-01T21:55:28.139Z,91.93
2022-12-01T21:57:58.163Z,92.46
2022-12-01T22:00:28.883Z,91.86
2022-12-01T22:03:24.619Z,92.06
2022-12-01T22:06:14.020Z,92.99
2022-12-01T22:08:46.543Z,91.90
2022-12-01T22:11:18.776Z,91.98
2022-12-01T22:13:51.715Z,91.85
2022-12-01T22:16:22.145Z,92.06
2022-12-01T22:18:52.298Z,92.24
2022-12-01T22:21:45.345Z,92.04
2022-12-01T22:24:22.551Z,91.81
2022-12-01T22:26:54.973Z,92.33
2022-12-01T22:29:29.948Z,92.92
2022-12-01T22:32:26.103Z,92.44
2022-12-01T22:34:57.391Z,91.63
2022-12-01T22:37:30.841Z,91.52
2022-12-01T22:39:59.481Z,91.48
2022-12-01T22:42:31.752Z,90.98
2022-12-01T22:45:02.489Z,90.97
2022-12-01T22:47:32.762Z,91.18
2022-12-01T22:50:01.464Z,91.55
2022-12-01T22:52:30.863Z,91.62
2022-12-01T22:54:59.435Z,92.13
2022-12-01T22:57:32.988Z,92.35
2022-12-01T23:00:15.275Z,92.27
2022-12-01T23:02:44.068Z,92.48
2022-12-01T23:05:21.451Z,92.09
2022-12-01T23:07:50.550Z,92.46
2022-12-01T23:10:20.814Z,92.27
2022-12-01T23:12:50.940Z,92.08
2022-12-01T23:15:28.552Z,92.52
2022-12-01T23:17:57.713Z,93.15
2022-12-01T23:20:31.146Z,93.02
2022-12-01T23:23:02.356Z,92.95
2022-12-01T23:25:31.854Z,93.14
2022-12-01T23:28:03.012Z,93.37
2022-12-01T23:30:33.155Z,92.66
2022-12-01T23:33:12.415Z,92.80
2022-12-01T23:35:44.991Z,92.72
2022-12-01T23:38:17.042Z,92.36
2022-12-01T23:40:46.163Z,92.51
2022-12-01T23:43:19.549Z,92.41
2022-12-01T23:45:51.015Z,92.38
2022-12-01T23:48:24.116Z,92.02
2022-12-01T23:50:54.629Z,92.69
2022-12-01T23:53:28.004Z,92.70
2022-12-01T23:55:57.651Z,92.72
2022-12-01T23:58:26.297Z,92.31
